sensor_id;sensor_type;location;lat;lon;timestamp;temperature;humidity
21823;DHT22;11074;48.596;9.238;2023-02-01T00:00:32;4.60;99.90
21823;DHT22;11074;48.596;9.238;2023-02-01T00:02:59;4.60;99.90
21823;DHT22;11074;48.596;9.238;2023-02-01T00:05:25;4.50;99.90
21823;DHT22;11074;48.596;9.238;2023-02-01T00:07:51;4.50;99.90
21823;DHT22;11074;48.596;9.238;2023-02-01T00:10:17;4.60;99.90
21823;DHT22;11074;48.596;9.238;2023-02-01T00:12:43;4.60;99.90
21823;DHT22;11074;48.596;9.238;2023-02-01T00:15:09;4.50;99.90
21823;DHT22;11074;48.596;9.238;2023-02-01T00:17:35;4.50;99.90
21823;DHT22;11074;48.596;9.238;2023-02-01T00:20:01;4.50;99.90
21823;DHT22;11074;48.596;9.238;2023-02-01T00:22:27;4.50;99.90
21823;DHT22;11074;48.596;9.238;2023-02-01T00:24:53;4.50;99.90
21823;DHT22;11074;48.596;9.238;2023-02-01T00:27:18;4.50;99.90
21823;DHT22;11074;48.596;9.238;2023-02-01T00:29:46;4.50;99.90
21823;DHT22;11074;48.596;9.238;2023-02-01T00:32:13;4.50;99.90
21823;DHT22;11074;48.596;9.238;2023-02-01T00:34:39;4.50;99.90
21823;DHT22;11074;48.596;9.238;2023-02-01T00:37:05;4.50;99.90
21823;DHT22;11074;48.596;9.238;2023-02-01T00:39:30;4.50;99.90
21823;DHT22;11074;48.596;9.238;2023-02-01T00:41:56;4.50;99.90
21823;DHT22;11074;48.596;9.238;2023-02-01T00:44:22;4.40;99.90
21823;DHT22;11074;48.596;9.238;2023-02-01T00:46:47;4.50;99.90
21823;DHT22;11074;48.596;9.238;2023-02-01T00:49:13;4.50;99.90
21823;DHT22;11074;48.596;9.238;2023-02-01T00:51:39;4.50;99.90
21823;DHT22;11074;48.596;9.238;2023-02-01T00:54:04;4.40;99.90
21823;DHT22;11074;48.596;9.238;2023-02-01T00:56:30;4.40;99.90
21823;DHT22;11074;48.596;9.238;2023-02-01T00:58:56;4.50;99.90
21823;DHT22;11074;48.596;9.238;2023-02-01T01:01:24;4.50;99.90
21823;DHT22;11074;48.596;9.238;2023-02-01T01:03:54;4.50;99.90
21823;DHT22;11074;48.596;9.238;2023-02-01T01:06:30;4.50;99.90
21823;DHT22;11074;48.596;9.238;2023-02-01T01:09:00;4.50;99.90
21823;DHT22;11074;48.596;9.238;2023-02-01T01:11:31;4.50;99.90
21823;DHT22;11074;48.596;9.238;2023-02-01T01:13:59;4.50;99.90
21823;DHT22;11074;48.596;9.238;2023-02-01T01:16:26;4.50;99.90
21823;DHT22;11074;48.596;9.238;2023-02-01T01:18:54;4.40;99.90
21823;DHT22;11074;48.596;9.238;2023-02-01T01:21:20;4.40;99.90
21823;DHT22;11074;48.596;9.238;2023-02-01T01:23:47;4.40;99.90
21823;DHT22;11074;48.596;9.238;2023-02-01T01:26:25;4.50;99.90
21823;DHT22;11074;48.596;9.238;2023-02-01T01:28:51;4.50;99.90
21823;DHT22;11074;48.596;9.238;2023-02-01T01:31:20;4.40;99.90
21823;DHT22;11074;48.596;9.238;2023-02-01T01:33:54;4.50;99.90
21823;DHT22;11074;48.596;9.238;2023-02-01T01:36:22;4.40;99.90
21823;DHT22;11074;48.596;9.238;2023-02-01T01:38:48;4.40;99.90
21823;DHT22;11074;48.596;9.238;2023-02-01T01:41:18;4.50;99.90
21823;DHT22;11074;48.596;9.238;2023-02-01T01:43:54;4.50;99.90
21823;DHT22;11074;48.596;9.238;2023-02-01T01:46:43;4.50;99.90
21823;DHT22;11074;48.596;9.238;2023-02-01T01:49:10;4.50;99.90
21823;DHT22;11074;48.596;9.238;2023-02-01T01:51:49;4.50;99.90
21823;DHT22;11074;48.596;9.238;2023-02-01T01:54:27;4.60;99.90
21823;DHT22;11074;48.596;9.238;2023-02-01T01:57:07;4.50;99.90
21823;DHT22;11074;48.596;9.238;2023-02-01T01:59:39;4.60;99.90
21823;DHT22;11074;48.596;9.238;2023-02-01T02:02:08;4.60;99.90
21823;DHT22;11074;48.596;9.238;2023-02-01T02:04:35;4.60;99.90
21823;DHT22;11074;48.596;9.238;2023-02-01T02:07:11;4.70;99.90
21823;DHT22;11074;48.596;9.238;2023-02-01T02:09:41;4.70;99.90
21823;DHT22;11074;48.596;9.238;2023-02-01T02:12:08;4.60;99.90
21823;DHT22;11074;48.596;9.238;2023-02-01T02:14:34;4.60;99.90
21823;DHT22;11074;48.596;9.238;2023-02-01T02:35:14;4.70;99.90
21823;DHT22;11074;48.596;9.238;2023-02-01T02:37:58;4.70;99.90
21823;DHT22;11074;48.596;9.238;2023-02-01T02:40:53;4.70;99.90
21823;DHT22;11074;48.596;9.238;2023-02-01T02:44:08;4.70;99.90
21823;DHT22;11074;48.596;9.238;2023-02-01T02:47:02;4.70;99.90
21823;DHT22;11074;48.596;9.238;2023-02-01T02:50:09;4.70;99.90
21823;DHT22;11074;48.596;9.238;2023-02-01T02:55:56;4.70;99.90
21823;DHT22;11074;48.596;9.238;2023-02-01T02:58:43;4.70;99.90
21823;DHT22;11074;48.596;9.238;2023-02-01T03:01:31;4.70;99.90
21823;DHT22;11074;48.596;9.238;2023-02-01T03:04:16;4.70;99.90
21823;DHT22;11074;48.596;9.238;2023-02-01T03:06:44;4.70;99.90
21823;DHT22;11074;48.596;9.238;2023-02-01T03:09:35;4.70;99.90
21823;DHT22;11074;48.596;9.238;2023-02-01T03:12:08;4.70;99.90
21823;DHT22;11074;48.596;9.238;2023-02-01T03:15:03;4.70;99.90
21823;DHT22;11074;48.596;9.238;2023-02-01T03:17:39;4.70;99.90
21823;DHT22;11074;48.596;9.238;2023-02-01T03:20:09;4.70;99.90
21823;DHT22;11074;48.596;9.238;2023-02-01T03:22:41;4.70;99.90
21823;DHT22;11074;48.596;9.238;2023-02-01T03:25:14;4.70;99.90
21823;DHT22;11074;48.596;9.238;2023-02-01T03:28:00;4.70;99.90
21823;DHT22;11074;48.596;9.238;2023-02-01T03:30:34;4.60;99.90
21823;DHT22;11074;48.596;9.238;2023-02-01T03:33:04;4.60;99.90
21823;DHT22;11074;48.596;9.238;2023-02-01T03:36:05;4.70;99.90
21823;DHT22;11074;48.596;9.238;2023-02-01T03:38:39;4.70;99.90
21823;DHT22;11074;48.596;9.238;2023-02-01T03:44:22;4.60;99.90
21823;DHT22;11074;48.596;9.238;2023-02-01T03:49:47;4.70;99.90
21823;DHT22;11074;48.596;9.238;2023-02-01T03:52:32;4.70;99.90
21823;DHT22;11074;48.596;9.238;2023-02-01T03:55:04;4.70;99.90
21823;DHT22;11074;48.596;9.238;2023-02-01T03:57:34;4.70;99.90
21823;DHT22;11074;48.596;9.238;2023-02-01T04:00:14;4.70;99.90
21823;DHT22;11074;48.596;9.238;2023-02-01T04:02:42;4.70;99.90
21823;DHT22;11074;48.596;9.238;2023-02-01T04:05:08;4.70;99.90
21823;DHT22;11074;48.596;9.238;2023-02-01T04:07:34;4.70;99.90
21823;DHT22;11074;48.596;9.238;2023-02-01T04:10:00;4.70;99.90
21823;DHT22;11074;48.596;9.238;2023-02-01T04:12:25;4.70;99.90
21823;DHT22;11074;48.596;9.238;2023-02-01T04:14:51;4.70;99.90
21823;DHT22;11074;48.596;9.238;2023-02-01T04:17:17;4.70;99.90
21823;DHT22;11074;48.596;9.238;2023-02-01T04:19:43;4.70;99.90
21823;DHT22;11074;48.596;9.238;2023-02-01T04:22:09;4.70;99.90
21823;DHT22;11074;48.596;9.238;2023-02-01T04:24:35;4.80;99.90
21823;DHT22;11074;48.596;9.238;2023-02-01T04:27:01;4.80;99.90
21823;DHT22;11074;48.596;9.238;2023-02-01T04:29:28;4.80;99.90
21823;DHT22;11074;48.596;9.238;2023-02-01T04:31:53;4.80;99.90
21823;DHT22;11074;48.596;9.238;2023-02-01T04:34:19;4.80;99.90
21823;DHT22;11074;48.596;9.238;2023-02-01T04:36:44;4.80;99.90
21823;DHT22;11074;48.596;9.238;2023-02-01T04:39:10;4.80;99.90
21823;DHT22;11074;48.596;9.238;2023-02-01T04:41:36;4.80;99.90
21823;DHT22;11074;48.596;9.238;2023-02-01T04:44:02;4.80;99.90
21823;DHT22;11074;48.596;9.238;2023-02-01T04:46:27;4.80;99.90
21823;DHT22;11074;48.596;9.238;2023-02-01T04:48:53;4.90;99.90
21823;DHT22;11074;48.596;9.238;2023-02-01T04:51:19;4.80;99.90
21823;DHT22;11074;48.596;9.238;2023-02-01T04:53:45;4.80;99.90
21823;DHT22;11074;48.596;9.238;2023-02-01T04:56:10;4.80;99.90
21823;DHT22;11074;48.596;9.238;2023-02-01T04:58:36;4.80;99.90
21823;DHT22;11074;48.596;9.238;2023-02-01T05:01:06;4.80;99.90
21823;DHT22;11074;48.596;9.238;2023-02-01T05:03:33;4.80;99.90
21823;DHT22;11074;48.596;9.238;2023-02-01T05:06:00;4.80;99.90
21823;DHT22;11074;48.596;9.238;2023-02-01T05:08:26;4.80;99.90
21823;DHT22;11074;48.596;9.238;2023-02-01T05:10:54;4.80;99.90
21823;DHT22;11074;48.596;9.238;2023-02-01T05:13:19;4.80;99.90
21823;DHT22;11074;48.596;9.238;2023-02-01T05:16:04;4.80;99.90
21823;DHT22;11074;48.596;9.238;2023-02-01T05:18:32;4.80;99.90
21823;DHT22;11074;48.596;9.238;2023-02-01T05:20:58;4.80;99.90
21823;DHT22;11074;48.596;9.238;2023-02-01T05:23:23;4.80;99.90
21823;DHT22;11074;48.596;9.238;2023-02-01T05:25:49;4.80;99.90
21823;DHT22;11074;48.596;9.238;2023-02-01T05:28:15;4.80;99.90
21823;DHT22;11074;48.596;9.238;2023-02-01T05:30:41;4.80;99.90
21823;DHT22;11074;48.596;9.238;2023-02-01T05:33:07;4.80;99.90
21823;DHT22;11074;48.596;9.238;2023-02-01T05:35:32;4.80;99.90
21823;DHT22;11074;48.596;9.238;2023-02-01T05:37:58;4.80;99.90
21823;DHT22;11074;48.596;9.238;2023-02-01T05:40:24;4.80;99.90
21823;DHT22;11074;48.596;9.238;2023-02-01T05:42:49;4.90;99.90
21823;DHT22;11074;48.596;9.238;2023-02-01T05:45:15;4.90;99.90
21823;DHT22;11074;48.596;9.238;2023-02-01T05:47:41;4.90;99.90
21823;DHT22;11074;48.596;9.238;2023-02-01T05:50:07;4.90;99.90
21823;DHT22;11074;48.596;9.238;2023-02-01T05:52:33;4.90;99.90
21823;DHT22;11074;48.596;9.238;2023-02-01T05:54:59;4.90;99.90
21823;DHT22;11074;48.596;9.238;2023-02-01T05:57:24;4.90;99.90
21823;DHT22;11074;48.596;9.238;2023-02-01T05:59:50;4.90;99.90
21823;DHT22;11074;48.596;9.238;2023-02-01T06:02:16;4.90;99.90
21823;DHT22;11074;48.596;9.238;2023-02-01T06:04:42;4.90;99.90
21823;DHT22;11074;48.596;9.238;2023-02-01T06:07:08;4.90;99.90
21823;DHT22;11074;48.596;9.238;2023-02-01T06:09:35;4.90;99.90
21823;DHT22;11074;48.596;9.238;2023-02-01T06:12:02;4.90;99.90
21823;DHT22;11074;48.596;9.238;2023-02-01T06:14:29;4.90;99.90
21823;DHT22;11074;48.596;9.238;2023-02-01T06:16:55;4.90;99.90
21823;DHT22;11074;48.596;9.238;2023-02-01T06:19:22;4.90;99.90
21823;DHT22;11074;48.596;9.238;2023-02-01T06:21:48;4.90;99.90
21823;DHT22;11074;48.596;9.238;2023-02-01T06:24:13;4.90;99.90
21823;DHT22;11074;48.596;9.238;2023-02-01T06:26:39;4.90;99.90
21823;DHT22;11074;48.596;9.238;2023-02-01T06:29:06;4.90;99.90
21823;DHT22;11074;48.596;9.238;2023-02-01T06:31:33;4.80;99.90
21823;DHT22;11074;48.596;9.238;2023-02-01T06:33:58;4.90;99.90
21823;DHT22;11074;48.596;9.238;2023-02-01T06:36:24;4.80;99.90
21823;DHT22;11074;48.596;9.238;2023-02-01T06:38:50;4.80;99.90
21823;DHT22;11074;48.596;9.238;2023-02-01T06:41:16;4.80;99.90
21823;DHT22;11074;48.596;9.238;2023-02-01T06:43:42;4.80;99.90
21823;DHT22;11074;48.596;9.238;2023-02-01T06:46:12;4.90;99.90
21823;DHT22;11074;48.596;9.238;2023-02-01T06:48:38;4.90;99.90
21823;DHT22;11074;48.596;9.238;2023-02-01T06:51:04;4.80;99.90
21823;DHT22;11074;48.596;9.238;2023-02-01T06:53:30;4.80;99.90
21823;DHT22;11074;48.596;9.238;2023-02-01T06:56:02;4.80;99.90
21823;DHT22;11074;48.596;9.238;2023-02-01T06:58:29;4.80;99.90
21823;DHT22;11074;48.596;9.238;2023-02-01T07:00:56;4.80;99.90
21823;DHT22;11074;48.596;9.238;2023-02-01T07:03:22;4.80;99.90
21823;DHT22;11074;48.596;9.238;2023-02-01T07:05:48;4.80;99.90
21823;DHT22;11074;48.596;9.238;2023-02-01T07:08:14;4.80;99.90
21823;DHT22;11074;48.596;9.238;2023-02-01T07:10:39;4.80;99.90
21823;DHT22;11074;48.596;9.238;2023-02-01T07:13:05;4.80;99.90
21823;DHT22;11074;48.596;9.238;2023-02-01T07:15:31;4.80;99.90
21823;DHT22;11074;48.596;9.238;2023-02-01T07:17:57;4.80;99.90
21823;DHT22;11074;48.596;9.238;2023-02-01T07:20:23;4.80;99.90
21823;DHT22;11074;48.596;9.238;2023-02-01T07:22:48;4.90;99.90
21823;DHT22;11074;48.596;9.238;2023-02-01T07:25:14;4.90;99.90
21823;DHT22;11074;48.596;9.238;2023-02-01T07:27:40;4.90;99.90
21823;DHT22;11074;48.596;9.238;2023-02-01T07:30:06;4.90;99.90
21823;DHT22;11074;48.596;9.238;2023-02-01T07:32:32;4.90;99.90
21823;DHT22;11074;48.596;9.238;2023-02-01T07:34:58;4.90;99.90
21823;DHT22;11074;48.596;9.238;2023-02-01T07:37:24;4.90;99.90
21823;DHT22;11074;48.596;9.238;2023-02-01T07:39:51;4.90;99.90
21823;DHT22;11074;48.596;9.238;2023-02-01T07:42:17;4.90;99.90
21823;DHT22;11074;48.596;9.238;2023-02-01T07:44:42;4.90;99.90
21823;DHT22;11074;48.596;9.238;2023-02-01T07:47:08;4.90;99.90
21823;DHT22;11074;48.596;9.238;2023-02-01T07:49:34;4.90;99.90
21823;DHT22;11074;48.596;9.238;2023-02-01T07:52:00;4.90;99.90
21823;DHT22;11074;48.596;9.238;2023-02-01T07:54:26;4.90;99.90
21823;DHT22;11074;48.596;9.238;2023-02-01T07:56:51;4.90;99.90
21823;DHT22;11074;48.596;9.238;2023-02-01T07:59:17;5.00;99.90
21823;DHT22;11074;48.596;9.238;2023-02-01T08:01:43;5.00;99.90
21823;DHT22;11074;48.596;9.238;2023-02-01T08:04:11;5.00;99.90
21823;DHT22;11074;48.596;9.238;2023-02-01T08:06:38;5.00;99.90
21823;DHT22;11074;48.596;9.238;2023-02-01T08:09:05;5.00;99.90
21823;DHT22;11074;48.596;9.238;2023-02-01T08:11:34;5.10;99.90
21823;DHT22;11074;48.596;9.238;2023-02-01T08:14:01;5.10;99.90
21823;DHT22;11074;48.596;9.238;2023-02-01T08:16:27;5.10;99.90
21823;DHT22;11074;48.596;9.238;2023-02-01T08:18:53;5.10;99.90
21823;DHT22;11074;48.596;9.238;2023-02-01T08:21:26;5.10;99.90
21823;DHT22;11074;48.596;9.238;2023-02-01T08:24:05;5.10;99.90
21823;DHT22;11074;48.596;9.238;2023-02-01T08:26:32;5.10;99.90
21823;DHT22;11074;48.596;9.238;2023-02-01T08:28:59;5.10;99.90
21823;DHT22;11074;48.596;9.238;2023-02-01T08:31:29;5.10;99.90
21823;DHT22;11074;48.596;9.238;2023-02-01T08:33:58;5.20;99.90
21823;DHT22;11074;48.596;9.238;2023-02-01T08:36:28;5.20;99.90
21823;DHT22;11074;48.596;9.238;2023-02-01T08:38:55;5.20;99.90
21823;DHT22;11074;48.596;9.238;2023-02-01T08:41:23;5.20;99.90
21823;DHT22;11074;48.596;9.238;2023-02-01T08:43:51;5.30;99.90
21823;DHT22;11074;48.596;9.238;2023-02-01T08:46:19;5.30;99.90
21823;DHT22;11074;48.596;9.238;2023-02-01T08:48:47;5.30;99.90
21823;DHT22;11074;48.596;9.238;2023-02-01T08:51:14;5.40;99.90
21823;DHT22;11074;48.596;9.238;2023-02-01T08:53:42;5.40;99.90
21823;DHT22;11074;48.596;9.238;2023-02-01T08:56:09;5.50;99.90
21823;DHT22;11074;48.596;9.238;2023-02-01T08:58:36;5.60;99.90
21823;DHT22;11074;48.596;9.238;2023-02-01T09:01:20;5.60;99.90
21823;DHT22;11074;48.596;9.238;2023-02-01T09:03:45;5.60;99.90
21823;DHT22;11074;48.596;9.238;2023-02-01T09:06:13;5.50;99.90
21823;DHT22;11074;48.596;9.238;2023-02-01T09:08:41;5.50;99.90
21823;DHT22;11074;48.596;9.238;2023-02-01T09:11:13;5.50;99.90
21823;DHT22;11074;48.596;9.238;2023-02-01T09:13:40;5.50;99.90
21823;DHT22;11074;48.596;9.238;2023-02-01T09:16:07;5.50;99.90
21823;DHT22;11074;48.596;9.238;2023-02-01T09:18:32;5.50;99.90
21823;DHT22;11074;48.596;9.238;2023-02-01T09:20:58;5.50;99.90
21823;DHT22;11074;48.596;9.238;2023-02-01T09:23:24;5.50;99.90
21823;DHT22;11074;48.596;9.238;2023-02-01T09:25:49;5.40;99.90
21823;DHT22;11074;48.596;9.238;2023-02-01T09:28:18;5.50;99.90
21823;DHT22;11074;48.596;9.238;2023-02-01T09:30:45;5.40;99.90
21823;DHT22;11074;48.596;9.238;2023-02-01T09:33:10;5.40;99.90
21823;DHT22;11074;48.596;9.238;2023-02-01T09:35:36;5.40;99.90
21823;DHT22;11074;48.596;9.238;2023-02-01T09:38:03;5.40;99.90
21823;DHT22;11074;48.596;9.238;2023-02-01T09:40:28;5.40;99.90
21823;DHT22;11074;48.596;9.238;2023-02-01T09:43:21;5.40;99.90
21823;DHT22;11074;48.596;9.238;2023-02-01T09:48:55;5.40;99.90
21823;DHT22;11074;48.596;9.238;2023-02-01T09:51:34;5.50;99.90
21823;DHT22;11074;48.596;9.238;2023-02-01T09:54:22;5.50;99.90
21823;DHT22;11074;48.596;9.238;2023-02-01T09:57:11;5.50;99.90
21823;DHT22;11074;48.596;9.238;2023-02-01T09:59:47;5.60;99.90
21823;DHT22;11074;48.596;9.238;2023-02-01T10:02:23;5.60;99.90
21823;DHT22;11074;48.596;9.238;2023-02-01T10:04:54;5.60;99.90
21823;DHT22;11074;48.596;9.238;2023-02-01T10:07:34;5.60;99.90
21823;DHT22;11074;48.596;9.238;2023-02-01T10:10:28;5.60;99.90
21823;DHT22;11074;48.596;9.238;2023-02-01T10:13:23;5.60;99.90
21823;DHT22;11074;48.596;9.238;2023-02-01T10:19:20;5.70;99.90
21823;DHT22;11074;48.596;9.238;2023-02-01T10:22:00;5.70;99.90
21823;DHT22;11074;48.596;9.238;2023-02-01T10:24:37;5.80;99.90
21823;DHT22;11074;48.596;9.238;2023-02-01T10:27:31;5.80;99.90
21823;DHT22;11074;48.596;9.238;2023-02-01T10:30:05;5.80;99.90
21823;DHT22;11074;48.596;9.238;2023-02-01T10:32:41;5.90;99.90
21823;DHT22;11074;48.596;9.238;2023-02-01T10:35:17;5.90;99.90
21823;DHT22;11074;48.596;9.238;2023-02-01T10:37:48;5.90;99.90
21823;DHT22;11074;48.596;9.238;2023-02-01T10:40:24;6.00;99.90
21823;DHT22;11074;48.596;9.238;2023-02-01T10:42:54;5.90;99.90
21823;DHT22;11074;48.596;9.238;2023-02-01T10:45:27;6.00;99.90
21823;DHT22;11074;48.596;9.238;2023-02-01T10:47:57;5.90;99.90
21823;DHT22;11074;48.596;9.238;2023-02-01T10:50:42;6.00;99.90
21823;DHT22;11074;48.596;9.238;2023-02-01T10:53:21;6.00;99.90
21823;DHT22;11074;48.596;9.238;2023-02-01T10:56:10;6.00;99.90
21823;DHT22;11074;48.596;9.238;2023-02-01T10:58:45;6.00;99.90
21823;DHT22;11074;48.596;9.238;2023-02-01T11:01:27;6.10;99.90
21823;DHT22;11074;48.596;9.238;2023-02-01T11:03:58;6.10;99.90
21823;DHT22;11074;48.596;9.238;2023-02-01T11:06:40;6.00;99.90
21823;DHT22;11074;48.596;9.238;2023-02-01T11:14:18;6.00;99.90
21823;DHT22;11074;48.596;9.238;2023-02-01T11:16:57;6.00;99.90
21823;DHT22;11074;48.596;9.238;2023-02-01T11:19:26;6.00;99.90
21823;DHT22;11074;48.596;9.238;2023-02-01T11:21:53;6.00;99.90
21823;DHT22;11074;48.596;9.238;2023-02-01T11:24:24;6.00;99.90
21823;DHT22;11074;48.596;9.238;2023-02-01T11:26:58;6.00;99.90
21823;DHT22;11074;48.596;9.238;2023-02-01T11:29:29;6.00;99.90
21823;DHT22;11074;48.596;9.238;2023-02-01T11:32:03;6.00;99.90
21823;DHT22;11074;48.596;9.238;2023-02-01T11:34:44;5.90;99.90
21823;DHT22;11074;48.596;9.238;2023-02-01T11:37:25;6.00;99.90
21823;DHT22;11074;48.596;9.238;2023-02-01T11:40:02;6.00;99.90
21823;DHT22;11074;48.596;9.238;2023-02-01T11:43:26;6.10;99.90
21823;DHT22;11074;48.596;9.238;2023-02-01T11:46:02;6.10;99.90
21823;DHT22;11074;48.596;9.238;2023-02-01T11:48:41;6.10;99.90
21823;DHT22;11074;48.596;9.238;2023-02-01T11:57:26;6.00;99.90
21823;DHT22;11074;48.596;9.238;2023-02-01T12:00:06;6.10;99.90
21823;DHT22;11074;48.596;9.238;2023-02-01T12:02:57;6.10;99.90
21823;DHT22;11074;48.596;9.238;2023-02-01T12:06:08;6.20;99.90
21823;DHT22;11074;48.596;9.238;2023-02-01T12:12:22;6.20;99.90
21823;DHT22;11074;48.596;9.238;2023-02-01T12:15:30;6.20;99.90
21823;DHT22;11074;48.596;9.238;2023-02-01T12:21:24;6.20;99.90
21823;DHT22;11074;48.596;9.238;2023-02-01T12:27:10;6.20;99.90
21823;DHT22;11074;48.596;9.238;2023-02-01T12:36:09;6.20;99.90
21823;DHT22;11074;48.596;9.238;2023-02-01T12:38:44;6.20;99.90
21823;DHT22;11074;48.596;9.238;2023-02-01T12:44:47;6.10;99.90
21823;DHT22;11074;48.596;9.238;2023-02-01T12:50:20;6.20;99.90
21823;DHT22;11074;48.596;9.238;2023-02-01T12:52:52;6.10;99.90
21823;DHT22;11074;48.596;9.238;2023-02-01T12:57:56;6.10;99.90
21823;DHT22;11074;48.596;9.238;2023-02-01T13:00:43;6.10;99.90
21823;DHT22;11074;48.596;9.238;2023-02-01T13:06:36;6.10;99.90
21823;DHT22;11074;48.596;9.238;2023-02-01T13:09:22;6.10;99.90
21823;DHT22;11074;48.596;9.238;2023-02-01T13:11:54;6.10;99.90
21823;DHT22;11074;48.596;9.238;2023-02-01T13:17:23;6.20;99.90
21823;DHT22;11074;48.596;9.238;2023-02-01T13:22:37;6.20;99.90
21823;DHT22;11074;48.596;9.238;2023-02-01T13:25:25;6.10;99.90
21823;DHT22;11074;48.596;9.238;2023-02-01T13:28:02;6.10;99.90
21823;DHT22;11074;48.596;9.238;2023-02-01T13:30:45;6.10;99.90
21823;DHT22;11074;48.596;9.238;2023-02-01T13:33:36;6.10;99.90
21823;DHT22;11074;48.596;9.238;2023-02-01T13:36:34;6.10;99.90
21823;DHT22;11074;48.596;9.238;2023-02-01T13:39:40;6.10;99.90
21823;DHT22;11074;48.596;9.238;2023-02-01T13:45:02;6.10;99.90
21823;DHT22;11074;48.596;9.238;2023-02-01T13:47:39;6.10;99.90
21823;DHT22;11074;48.596;9.238;2023-02-01T13:50:37;6.10;99.90
21823;DHT22;11074;48.596;9.238;2023-02-01T13:58:19;6.10;99.90
21823;DHT22;11074;48.596;9.238;2023-02-01T14:00:48;6.10;99.90
21823;DHT22;11074;48.596;9.238;2023-02-01T14:03:19;6.10;99.90
21823;DHT22;11074;48.596;9.238;2023-02-01T14:09:16;6.10;99.90
21823;DHT22;11074;48.596;9.238;2023-02-01T14:11:54;6.10;99.90
21823;DHT22;11074;48.596;9.238;2023-02-01T14:19:33;6.30;99.90
21823;DHT22;11074;48.596;9.238;2023-02-01T14:22:00;6.30;99.90
21823;DHT22;11074;48.596;9.238;2023-02-01T14:24:56;6.30;99.90
21823;DHT22;11074;48.596;9.238;2023-02-01T14:27:25;6.20;99.90
21823;DHT22;11074;48.596;9.238;2023-02-01T14:29:57;6.20;99.90
21823;DHT22;11074;48.596;9.238;2023-02-01T14:32:31;6.20;99.90
21823;DHT22;11074;48.596;9.238;2023-02-01T14:35:01;6.20;99.90
21823;DHT22;11074;48.596;9.238;2023-02-01T14:37:34;6.20;99.90
21823;DHT22;11074;48.596;9.238;2023-02-01T14:53:37;6.00;99.90
21823;DHT22;11074;48.596;9.238;2023-02-01T15:01:24;6.00;99.90
21823;DHT22;11074;48.596;9.238;2023-02-01T15:09:30;6.00;99.90
21823;DHT22;11074;48.596;9.238;2023-02-01T15:12:04;6.00;99.90
21823;DHT22;11074;48.596;9.238;2023-02-01T15:14:41;6.00;99.90
21823;DHT22;11074;48.596;9.238;2023-02-01T15:17:28;6.00;99.90
21823;DHT22;11074;48.596;9.238;2023-02-01T15:20:16;6.00;99.90
21823;DHT22;11074;48.596;9.238;2023-02-01T15:23:00;6.00;99.90
21823;DHT22;11074;48.596;9.238;2023-02-01T15:25:34;6.10;99.90
21823;DHT22;11074;48.596;9.238;2023-02-01T15:28:02;6.00;99.90
21823;DHT22;11074;48.596;9.238;2023-02-01T15:30:31;6.00;99.90
21823;DHT22;11074;48.596;9.238;2023-02-01T15:35:44;6.10;99.90
21823;DHT22;11074;48.596;9.238;2023-02-01T15:46:39;6.00;99.90
21823;DHT22;11074;48.596;9.238;2023-02-01T15:49:29;6.10;99.90
21823;DHT22;11074;48.596;9.238;2023-02-01T15:51:58;6.10;99.90
21823;DHT22;11074;48.596;9.238;2023-02-01T15:57:03;6.10;99.90
21823;DHT22;11074;48.596;9.238;2023-02-01T15:59:44;6.00;99.90
21823;DHT22;11074;48.596;9.238;2023-02-01T16:05:05;6.00;99.90
21823;DHT22;11074;48.596;9.238;2023-02-01T16:10:45;6.00;99.90
21823;DHT22;11074;48.596;9.238;2023-02-01T16:13:14;6.00;99.90
21823;DHT22;11074;48.596;9.238;2023-02-01T16:15:42;6.00;99.90
21823;DHT22;11074;48.596;9.238;2023-02-01T16:18:09;6.00;99.90
21823;DHT22;11074;48.596;9.238;2023-02-01T16:20:37;6.00;99.90
21823;DHT22;11074;48.596;9.238;2023-02-01T16:23:05;5.90;99.90
21823;DHT22;11074;48.596;9.238;2023-02-01T16:25:32;5.90;99.90
21823;DHT22;11074;48.596;9.238;2023-02-01T16:27:58;5.90;99.90
21823;DHT22;11074;48.596;9.238;2023-02-01T16:30:24;6.00;99.90
21823;DHT22;11074;48.596;9.238;2023-02-01T16:32:54;5.90;99.90
21823;DHT22;11074;48.596;9.238;2023-02-01T16:35:26;5.90;99.90
21823;DHT22;11074;48.596;9.238;2023-02-01T16:37:54;6.00;99.90
21823;DHT22;11074;48.596;9.238;2023-02-01T16:40:20;6.00;99.90
21823;DHT22;11074;48.596;9.238;2023-02-01T16:42:51;6.00;99.90
21823;DHT22;11074;48.596;9.238;2023-02-01T16:45:20;6.00;99.90
21823;DHT22;11074;48.596;9.238;2023-02-01T16:47:53;6.00;99.90
21823;DHT22;11074;48.596;9.238;2023-02-01T16:50:22;6.00;99.90
21823;DHT22;11074;48.596;9.238;2023-02-01T16:52:53;6.00;99.90
21823;DHT22;11074;48.596;9.238;2023-02-01T16:55:20;6.00;99.90
21823;DHT22;11074;48.596;9.238;2023-02-01T16:57:47;6.00;99.90
21823;DHT22;11074;48.596;9.238;2023-02-01T17:00:13;5.90;99.90
21823;DHT22;11074;48.596;9.238;2023-02-01T17:02:41;6.00;99.90
21823;DHT22;11074;48.596;9.238;2023-02-01T17:05:08;5.90;99.90
21823;DHT22;11074;48.596;9.238;2023-02-01T17:07:36;5.90;99.90
21823;DHT22;11074;48.596;9.238;2023-02-01T17:10:04;5.90;99.90
21823;DHT22;11074;48.596;9.238;2023-02-01T17:12:32;5.90;99.90
21823;DHT22;11074;48.596;9.238;2023-02-01T17:14:59;5.90;99.90
21823;DHT22;11074;48.596;9.238;2023-02-01T17:17:36;5.90;99.90
21823;DHT22;11074;48.596;9.238;2023-02-01T17:20:04;5.90;99.90
21823;DHT22;11074;48.596;9.238;2023-02-01T17:22:32;5.90;99.90
21823;DHT22;11074;48.596;9.238;2023-02-01T17:24:58;5.90;99.90
21823;DHT22;11074;48.596;9.238;2023-02-01T17:27:24;5.90;99.90
21823;DHT22;11074;48.596;9.238;2023-02-01T17:29:49;5.90;99.90
21823;DHT22;11074;48.596;9.238;2023-02-01T17:32:21;5.90;99.90
21823;DHT22;11074;48.596;9.238;2023-02-01T17:34:49;5.90;99.90
21823;DHT22;11074;48.596;9.238;2023-02-01T17:37:32;5.80;99.90
21823;DHT22;11074;48.596;9.238;2023-02-01T17:40:00;5.90;99.90
21823;DHT22;11074;48.596;9.238;2023-02-01T17:42:28;5.90;99.90
21823;DHT22;11074;48.596;9.238;2023-02-01T17:45:23;5.80;99.90
21823;DHT22;11074;48.596;9.238;2023-02-01T17:47:50;5.80;99.90
21823;DHT22;11074;48.596;9.238;2023-02-01T17:50:16;5.80;99.90
21823;DHT22;11074;48.596;9.238;2023-02-01T17:52:42;5.70;99.90
21823;DHT22;11074;48.596;9.238;2023-02-01T17:55:23;5.70;99.90
21823;DHT22;11074;48.596;9.238;2023-02-01T17:57:49;5.70;99.90
21823;DHT22;11074;48.596;9.238;2023-02-01T18:00:16;5.80;99.90
21823;DHT22;11074;48.596;9.238;2023-02-01T18:02:43;5.70;99.90
21823;DHT22;11074;48.596;9.238;2023-02-01T18:08:08;5.70;99.90
21823;DHT22;11074;48.596;9.238;2023-02-01T18:10:34;5.80;99.90
21823;DHT22;11074;48.596;9.238;2023-02-01T18:13:01;5.70;99.90
21823;DHT22;11074;48.596;9.238;2023-02-01T18:15:29;5.70;99.90
21823;DHT22;11074;48.596;9.238;2023-02-01T18:17:56;5.60;99.90
21823;DHT22;11074;48.596;9.238;2023-02-01T18:20:23;5.60;99.90
21823;DHT22;11074;48.596;9.238;2023-02-01T18:22:51;5.60;99.90
21823;DHT22;11074;48.596;9.238;2023-02-01T18:27:55;5.60;99.90
21823;DHT22;11074;48.596;9.238;2023-02-01T18:30:24;5.70;99.90
21823;DHT22;11074;48.596;9.238;2023-02-01T18:32:55;5.60;99.90
21823;DHT22;11074;48.596;9.238;2023-02-01T18:35:29;5.60;99.90
21823;DHT22;11074;48.596;9.238;2023-02-01T18:37:56;5.60;99.90